createdAt,value
2022-10-14T00:00:54.233Z,1012.49
2022-10-14T00:01:54.236Z,1012.47
2022-10-14T00:02:54.234Z,1012.54
2022-10-14T00:03:54.196Z,1012.56
2022-10-14T00:04:54.184Z,1012.54
2022-10-14T00:05:54.176Z,1012.54
2022-10-14T00:06:54.190Z,1012.50
2022-10-14T00:07:54.152Z,1012.50
2022-10-14T00:08:54.147Z,1012.52
2022-10-14T00:09:54.132Z,1012.47
2022-10-14T00:10:54.121Z,1012.54
2022-10-14T00:11:54.129Z,1012.53
2022-10-14T00:12:54.099Z,1012.46
2022-10-14T00:13:54.087Z,1012.46
2022-10-14T00:14:54.124Z,1012.50
2022-10-14T00:15:54.100Z,1012.42
2022-10-14T00:16:54.105Z,1012.43
2022-10-14T00:17:54.048Z,1012.42
2022-10-14T00:18:54.033Z,1012.39
2022-10-14T00:19:54.020Z,1012.39
2022-10-14T00:20:54.017Z,1012.37
2022-10-14T00:21:54.014Z,1012.38
2022-10-14T00:22:54.011Z,1012.36
2022-10-14T00:23:53.978Z,1012.40
2022-10-14T00:24:53.966Z,1012.42
2022-10-14T00:25:53.955Z,1012.43
2022-10-14T00:26:53.944Z,1012.34
2022-10-14T00:27:53.959Z,1012.39
2022-10-14T00:28:53.974Z,1012.35
2022-10-14T00:29:53.920Z,1012.34
2022-10-14T00:30:53.906Z,1012.40
2022-10-14T00:31:53.911Z,1012.30
2022-10-14T00:32:53.904Z,1012.33
2022-10-14T00:33:53.889Z,1012.34
2022-10-14T00:34:53.863Z,1012.36
2022-10-14T00:35:53.848Z,1012.34
2022-10-14T00:36:53.836Z,1012.35
2022-10-14T00:37:53.826Z,1012.37
2022-10-14T00:38:53.836Z,1012.40
2022-10-14T00:39:57.069Z,1012.44
2022-10-14T00:40:53.795Z,1012.43
2022-10-14T00:41:53.779Z,1012.41
2022-10-14T00:42:53.859Z,1012.38
2022-10-14T00:43:53.782Z,1012.37
2022-10-14T00:44:53.747Z,1012.40
2022-10-14T00:45:53.738Z,1012.36
2022-10-14T00:46:53.725Z,1012.33
2022-10-14T00:47:53.742Z,1012.29
2022-10-14T00:48:53.728Z,1012.34
2022-10-14T00:49:53.694Z,1012.33
2022-10-14T00:50:53.683Z,1012.32
2022-10-14T00:51:53.669Z,1012.37
2022-10-14T00:52:53.667Z,1012.34
2022-10-14T00:53:53.672Z,1012.39
2022-10-14T00:54:53.641Z,1012.44
2022-10-14T00:55:53.627Z,1012.36
2022-10-14T00:56:53.621Z,1012.38
2022-10-14T00:57:53.607Z,1012.36
2022-10-14T00:58:53.616Z,1012.37
2022-10-14T00:59:53.587Z,1012.39
2022-10-14T01:00:53.646Z,1012.42
2022-10-14T01:01:53.561Z,1012.41
2022-10-14T01:02:53.555Z,1012.35
2022-10-14T01:03:53.578Z,1012.39
2022-10-14T01:04:53.532Z,1012.34
2022-10-14T01:05:53.520Z,1012.36
2022-10-14T01:06:53.511Z,1012.34
2022-10-14T01:07:53.494Z,1012.36
2022-10-14T01:08:53.513Z,1012.35
2022-10-14T01:09:53.485Z,1012.33
2022-10-14T01:10:53.466Z,1012.27
2022-10-14T01:12:09.846Z,1012.33
2022-10-14T01:12:54.441Z,1012.33
2022-10-14T01:13:53.431Z,1012.31
2022-10-14T01:14:53.450Z,1012.29
2022-10-14T01:15:53.407Z,1012.38
2022-10-14T01:16:53.402Z,1012.33
2022-10-14T01:17:53.384Z,1012.33
2022-10-14T01:18:53.378Z,1012.29
2022-10-14T01:19:53.413Z,1012.30
2022-10-14T01:20:53.356Z,1012.25
2022-10-14T01:21:53.350Z,1012.22
2022-10-14T01:22:53.334Z,1012.24
2022-10-14T01:23:53.319Z,1012.28
2022-10-14T01:24:53.336Z,1012.27
2022-10-14T01:25:53.301Z,1012.20
2022-10-14T01:26:53.312Z,1012.25
2022-10-14T01:27:53.282Z,1012.26
2022-10-14T01:28:53.324Z,1012.24
2022-10-14T01:29:53.278Z,1012.26
2022-10-14T01:30:53.248Z,1012.25
2022-10-14T01:31:53.259Z,1012.28
2022-10-14T01:32:53.225Z,1012.26
2022-10-14T01:33:53.213Z,1012.26
2022-10-14T01:34:53.231Z,1012.27
2022-10-14T01:35:53.212Z,1012.32
2022-10-14T01:36:53.190Z,1012.30
2022-10-14T01:37:53.200Z,1012.31
2022-10-14T01:38:53.163Z,1012.25
2022-10-14T01:39:53.145Z,1012.30
2022-10-14T01:40:53.144Z,1012.17
2022-10-14T01:41:53.131Z,1012.23
2022-10-14T01:42:53.142Z,1012.20
2022-10-14T01:43:53.119Z,1012.19
2022-10-14T01:44:53.098Z,1012.12
2022-10-14T01:45:53.086Z,1012.18
2022-10-14T01:46:53.073Z,1012.15
2022-10-14T01:47:53.088Z,1012.22
2022-10-14T01:48:53.052Z,1012.15
2022-10-14T01:49:53.039Z,1012.13
2022-10-14T01:50:53.031Z,1012.10
2022-10-14T01:51:53.059Z,1012.08
2022-10-14T01:52:53.005Z,1012.14
2022-10-14T01:53:53.000Z,1012.11
2022-10-14T01:54:52.992Z,1012.10
2022-10-14T01:55:53.002Z,1012.07
2022-10-14T01:56:52.966Z,1012.09
2022-10-14T01:57:52.976Z,1012.11
2022-10-14T01:58:52.944Z,1012.08
2022-10-14T01:59:52.932Z,1012.16
2022-10-14T02:00:52.924Z,1012.10
2022-10-14T02:01:52.993Z,1012.14
2022-10-14T02:02:52.927Z,1012.16
2022-10-14T02:03:52.887Z,1012.03
2022-10-14T02:04:52.876Z,1012.14
2022-10-14T02:05:52.885Z,1012.15
2022-10-14T02:06:52.856Z,1012.05
2022-10-14T02:07:52.887Z,1012.09
2022-10-14T02:08:52.833Z,1012.05
2022-10-14T02:09:52.824Z,1012.04
2022-10-14T02:10:52.817Z,1012.00
2022-10-14T02:11:52.798Z,1012.05
2022-10-14T02:12:52.836Z,1012.02
2022-10-14T02:13:52.779Z,1011.97
2022-10-14T02:14:52.773Z,1012.04
2022-10-14T02:15:52.758Z,1012.02
2022-10-14T02:16:52.746Z,1012.07
2022-10-14T02:17:52.732Z,1012.01
2022-10-14T02:18:52.752Z,1012.04
2022-10-14T02:19:52.743Z,1012.06
2022-10-14T02:20:52.702Z,1012.04
2022-10-14T02:21:52.689Z,1012.03
2022-10-14T02:22:52.704Z,1012.01
2022-10-14T02:23:52.707Z,1012.05
2022-10-14T02:24:52.665Z,1012.03
2022-10-14T02:25:52.644Z,1012.05
2022-10-14T02:26:52.638Z,1012.09
2022-10-14T02:27:52.626Z,1012.06
2022-10-14T02:28:52.697Z,1012.09
2022-10-14T02:29:52.602Z,1012.08
2022-10-14T02:30:52.594Z,1012.14
2022-10-14T02:31:52.584Z,1012.16
2022-10-14T02:32:52.590Z,1012.11
2022-10-14T02:33:52.584Z,1012.06
2022-10-14T02:34:52.555Z,1012.10
2022-10-14T02:35:52.536Z,1012.08
2022-10-14T02:36:52.532Z,1012.04
2022-10-14T02:37:52.513Z,1012.07
2022-10-14T02:38:52.528Z,1012.08
2022-10-14T02:39:52.517Z,1012.08
2022-10-14T02:40:52.484Z,1012.11
2022-10-14T02:41:52.480Z,1012.10
2022-10-14T02:42:52.465Z,1012.16
2022-10-14T02:43:52.478Z,1012.16
2022-10-14T02:44:52.451Z,1012.14
2022-10-14T02:45:52.430Z,1012.15
2022-10-14T02:46:52.425Z,1012.15
2022-10-14T02:47:52.409Z,1012.13
2022-10-14T02:48:52.426Z,1012.13
2022-10-14T02:49:52.407Z,1012.14
2022-10-14T02:50:52.376Z,1012.18
2022-10-14T02:51:52.366Z,1012.16
2022-10-14T02:52:52.353Z,1012.17
2022-10-14T02:53:52.345Z,1012.12
2022-10-14T02:54:52.360Z,1012.12
2022-10-14T02:55:52.356Z,1012.16
2022-10-14T02:56:52.334Z,1012.19
2022-10-14T02:57:52.317Z,1012.23
2022-10-14T02:58:52.292Z,1012.16
2022-10-14T02:59:52.292Z,1012.23
2022-10-14T03:00:52.289Z,1012.18
2022-10-14T03:01:52.310Z,1012.20
2022-10-14T03:02:52.245Z,1012.19
2022-10-14T03:03:52.235Z,1012.14
2022-10-14T03:04:52.229Z,1012.17
2022-10-14T03:05:52.240Z,1012.16
2022-10-14T03:06:52.223Z,1012.15
2022-10-14T03:07:52.202Z,1012.14
2022-10-14T03:08:52.183Z,1012.06
2022-10-14T03:09:52.171Z,1012.01
2022-10-14T03:10:52.184Z,1012.00
2022-10-14T03:11:52.206Z,1011.99
2022-10-14T03:12:52.146Z,1011.96
2022-10-14T03:13:52.129Z,1011.98
2022-10-14T03:14:52.119Z,1011.97
2022-10-14T03:15:52.126Z,1011.99
2022-10-14T03:16:52.103Z,1011.95
2022-10-14T03:17:52.083Z,1011.94
2022-10-14T03:18:52.102Z,1011.97
2022-10-14T03:19:52.065Z,1011.93
2022-10-14T03:20:52.052Z,1011.91
2022-10-14T03:21:52.039Z,1011.88
2022-10-14T03:22:52.033Z,1011.91
2022-10-14T03:23:52.052Z,1011.89
2022-10-14T03:24:52.012Z,1011.88
2022-10-14T03:25:51.996Z,1011.83
2022-10-14T03:26:51.988Z,1011.85
2022-10-14T03:27:51.994Z,1011.85
2022-10-14T03:28:52.071Z,1011.87
2022-10-14T03:29:51.979Z,1011.81
2022-10-14T03:30:51.945Z,1011.84
2022-10-14T03:31:51.932Z,1011.81
2022-10-14T03:32:51.929Z,1011.82
2022-10-14T03:33:51.916Z,1011.89
2022-10-14T03:34:51.932Z,1011.84
2022-10-14T03:35:51.894Z,1011.83
2022-10-14T03:36:51.896Z,1011.86
2022-10-14T03:37:51.872Z,1011.83
2022-10-14T03:38:51.860Z,1011.78
2022-10-14T03:39:51.849Z,1011.73
2022-10-14T03:40:51.837Z,1011.75
2022-10-14T03:41:51.848Z,1011.79
2022-10-14T03:42:51.816Z,1011.76
2022-10-14T03:43:51.829Z,1011.78
2022-10-14T03:44:51.802Z,1011.80
2022-10-14T03:45:51.782Z,1011.88
2022-10-14T03:46:51.801Z,1011.84
2022-10-14T03:47:51.774Z,1011.81
2022-10-14T03:48:51.775Z,1011.80
2022-10-14T03:49:51.750Z,1011.82
2022-10-14T03:50:51.736Z,1011.83
2022-10-14T03:51:51.750Z,1011.77
2022-10-14T03:52:55.387Z,1011.83
2022-10-14T03:53:51.701Z,1011.82
2022-10-14T03:54:51.688Z,1011.80
2022-10-14T03:55:51.675Z,1011.74
2022-10-14T03:56:51.664Z,1011.78
2022-10-14T03:57:51.684Z,1011.79
2022-10-14T03:58:51.644Z,1011.73
2022-10-14T03:59:51.653Z,1011.73
2022-10-14T04:00:51.621Z,1011.76
2022-10-14T04:01:51.669Z,1011.73
2022-10-14T04:02:51.630Z,1011.69
2022-10-14T04:03:51.589Z,1011.74
2022-10-14T04:04:51.577Z,1011.73
2022-10-14T04:05:51.571Z,1011.68
2022-10-14T04:06:51.556Z,1011.70
2022-10-14T04:07:51.576Z,1011.70
2022-10-14T04:08:51.536Z,1011.64
2022-10-14T04:09:51.525Z,1011.68
2022-10-14T04:10:51.513Z,1011.68
2022-10-14T04:11:51.521Z,1011.66
2022-10-14T04:12:51.522Z,1011.62
2022-10-14T04:13:51.539Z,1011.64
2022-10-14T04:14:51.511Z,1011.61
2022-10-14T04:15:51.550Z,1011.58
2022-10-14T04:16:51.450Z,1011.60
2022-10-14T04:17:51.439Z,1011.61
2022-10-14T04:18:51.443Z,1011.57
2022-10-14T04:19:51.439Z,1011.60
2022-10-14T04:20:51.411Z,1011.67
2022-10-14T04:21:51.395Z,1011.68
2022-10-14T04:22:51.386Z,1011.70
2022-10-14T04:23:51.404Z,1011.73
2022-10-14T04:24:51.359Z,1011.68
2022-10-14T04:25:51.354Z,1011.62
2022-10-14T04:26:51.349Z,1011.61
2022-10-14T04:27:51.328Z,1011.50
2022-10-14T04:28:51.423Z,1011.61
2022-10-14T04:29:51.309Z,1011.65
2022-10-14T04:30:51.298Z,1011.65
2022-10-14T04:31:51.310Z,1011.66
2022-10-14T04:32:51.274Z,1011.68
2022-10-14T04:33:51.290Z,1011.65
2022-10-14T04:34:51.255Z,1011.56
2022-10-14T04:35:51.241Z,1011.56
2022-10-14T04:36:51.231Z,1011.60
2022-10-14T04:37:51.219Z,1011.56
2022-10-14T04:38:51.245Z,1011.53
2022-10-14T04:39:51.201Z,1011.62
2022-10-14T04:40:51.183Z,1011.61
2022-10-14T04:41:51.177Z,1011.53
2022-10-14T04:42:51.165Z,1011.59
2022-10-14T04:43:51.184Z,1011.56
2022-10-14T04:44:51.148Z,1011.51
2022-10-14T04:45:51.132Z,1011.53
2022-10-14T04:46:51.121Z,1011.55
2022-10-14T04:47:51.146Z,1011.52
2022-10-14T04:48:51.099Z,1011.58
2022-10-14T04:49:51.085Z,1011.51
2022-10-14T04:50:51.072Z,1011.52
2022-10-14T04:51:51.085Z,1011.52
2022-10-14T04:52:51.074Z,1011.49
2022-10-14T04:53:51.042Z,1011.46
2022-10-14T04:54:51.029Z,1011.48
2022-10-14T04:55:51.022Z,1011.51
2022-10-14T04:56:51.005Z,1011.51
2022-10-14T04:57:51.026Z,1011.42
2022-10-14T04:58:50.991Z,1011.44
2022-10-14T04:59:50.981Z,1011.48
2022-10-14T05:00:50.967Z,1011.46
2022-10-14T05:01:51.008Z,1011.50
2022-10-14T05:02:50.970Z,1011.52
2022-10-14T05:03:50.955Z,1011.44
2022-10-14T05:04:50.921Z,1011.42
2022-10-14T05:05:50.916Z,1011.45
2022-10-14T05:06:50.900Z,1011.38
2022-10-14T05:07:50.918Z,1011.39
2022-10-14T05:08:50.877Z,1011.37
2022-10-14T05:09:54.278Z,1011.44
2022-10-14T05:10:51.852Z,1011.44
2022-10-14T05:11:50.845Z,1011.43
2022-10-14T05:12:50.837Z,1011.46
2022-10-14T05:13:50.840Z,1011.47
2022-10-14T05:14:50.807Z,1011.42
2022-10-14T05:15:50.801Z,1011.41
2022-10-14T05:16:50.807Z,1011.42
2022-10-14T05:17:50.788Z,1011.53
2022-10-14T05:18:50.763Z,1011.44
2022-10-14T05:19:50.774Z,1011.51
2022-10-14T05:20:50.744Z,1011.47
2022-10-14T05:21:50.759Z,1011.41
2022-10-14T05:22:50.724Z,1011.50
2022-10-14T05:23:50.707Z,1011.49
2022-10-14T05:24:50.701Z,1011.49
2022-10-14T05:25:50.691Z,1011.45
2022-10-14T05:26:50.701Z,1011.41
2022-10-14T05:27:50.669Z,1011.41
2022-10-14T05:28:50.741Z,1011.43
2022-10-14T05:29:50.651Z,1011.43
2022-10-14T05:30:50.630Z,1011.44
2022-10-14T05:31:50.693Z,1011.45
2022-10-14T05:32:50.609Z,1011.45
2022-10-14T05:33:50.603Z,1011.44
2022-10-14T05:34:50.613Z,1011.44
2022-10-14T05:35:59.401Z,1011.42
2022-10-14T05:36:51.568Z,1011.40
2022-10-14T05:37:50.556Z,1011.42
2022-10-14T05:38:50.551Z,1011.37
2022-10-14T05:39:50.564Z,1011.38
2022-10-14T05:40:50.540Z,1011.36
2022-10-14T05:41:50.511Z,1011.46
2022-10-14T05:42:50.504Z,1011.32
2022-10-14T05:43:50.489Z,1011.38
2022-10-14T05:44:50.504Z,1011.39
2022-10-14T05:45:50.466Z,1011.40
2022-10-14T05:46:50.458Z,1011.36
2022-10-14T05:47:50.472Z,1011.38
2022-10-14T05:48:50.441Z,1011.38
2022-10-14T05:49:50.427Z,1011.34
2022-10-14T05:50:50.413Z,1011.40
2022-10-14T05:51:50.431Z,1011.40
2022-10-14T05:52:50.423Z,1011.36
2022-10-14T05:53:50.379Z,1011.46
2022-10-14T05:54:50.390Z,1011.41
2022-10-14T05:55:50.360Z,1011.41
2022-10-14T05:56:50.348Z,1011.40
2022-10-14T05:57:50.365Z,1011.39
2022-10-14T05:58:50.326Z,1011.34
2022-10-14T05:59:50.346Z,1011.38
2022-10-14T06:00:50.313Z,1011.35
2022-10-14T06:01:50.296Z,1011.34
2022-10-14T06:02:50.341Z,1011.32
2022-10-14T06:03:50.277Z,1011.34
2022-10-14T06:04:50.283Z,1011.33
2022-10-14T06:05:50.253Z,1011.31
2022-10-14T06:06:50.245Z,1011.34
2022-10-14T06:07:50.254Z,1011.29
2022-10-14T06:08:50.226Z,1011.37
2022-10-14T06:09:50.315Z,1011.36
2022-10-14T06:10:50.198Z,1011.35
2022-10-14T06:11:50.196Z,1011.37
2022-10-14T06:12:50.181Z,1011.34
2022-10-14T06:13:50.166Z,1011.33
2022-10-14T06:14:50.182Z,1011.37
2022-10-14T06:15:50.150Z,1011.29
2022-10-14T06:16:50.156Z,1011.32
2022-10-14T06:17:50.141Z,1011.34
2022-10-14T06:18:54.277Z,1011.32
2022-10-14T06:19:50.108Z,1011.35
2022-10-14T06:20:50.093Z,1011.34
2022-10-14T06:21:50.104Z,1011.31
2022-10-14T06:22:50.068Z,1011.31
2022-10-14T06:23:50.104Z,1011.38
2022-10-14T06:24:50.054Z,1011.35
2022-10-14T06:25:50.041Z,1011.35
2022-10-14T06:26:50.053Z,1011.35
2022-10-14T06:27:50.018Z,1011.43
2022-10-14T06:28:50.036Z,1011.32
2022-10-14T06:29:49.994Z,1011.35
2022-10-14T06:30:49.986Z,1011.41
2022-10-14T06:31:49.993Z,1011.37
2022-10-14T06:32:49.987Z,1011.36
2022-10-14T06:33:49.953Z,1011.37
2022-10-14T06:34:49.940Z,1011.42
2022-10-14T06:35:49.935Z,1011.41
2022-10-14T06:36:49.916Z,1011.39
2022-10-14T06:37:49.928Z,1011.39
2022-10-14T06:38:49.897Z,1011.40
2022-10-14T06:39:49.905Z,1011.44
2022-10-14T06:40:49.882Z,1011.32
2022-10-14T06:41:49.886Z,1011.49
2022-10-14T06:42:49.872Z,1011.44
2022-10-14T06:43:49.842Z,1011.43
2022-10-14T06:44:49.832Z,1011.43
2022-10-14T06:45:49.819Z,1011.43
2022-10-14T06:46:49.841Z,1011.40
2022-10-14T06:47:49.826Z,1011.43
2022-10-14T06:48:50.558Z,1011.41
2022-10-14T06:49:49.781Z,1011.35
2022-10-14T06:50:49.789Z,1011.36
2022-10-14T06:51:49.809Z,1011.37
2022-10-14T06:52:49.788Z,1011.41
2022-10-14T06:53:49.734Z,1011.39
2022-10-14T06:54:49.717Z,1011.42
2022-10-14T06:55:49.730Z,1011.37
2022-10-14T06:56:49.708Z,1011.43
2022-10-14T06:57:49.714Z,1011.33
2022-10-14T06:58:49.678Z,1011.36
2022-10-14T06:59:49.676Z,1011.40
2022-10-14T07:00:49.681Z,1011.36
2022-10-14T07:01:49.711Z,1011.37
2022-10-14T07:02:49.667Z,1011.43
2022-10-14T07:03:52.832Z,1011.43
2022-10-14T07:04:50.615Z,1011.37
2022-10-14T07:05:49.604Z,1011.44
2022-10-14T07:06:49.591Z,1011.46
2022-10-14T07:07:49.684Z,1011.43
2022-10-14T07:08:49.572Z,1011.49
2022-10-14T07:09:49.562Z,1011.50
2022-10-14T07:10:49.556Z,1011.51
2022-10-14T07:11:49.560Z,1011.55
2022-10-14T07:12:49.554Z,1011.52
2022-10-14T07:13:49.537Z,1011.53
2022-10-14T07:14:49.509Z,1011.54
2022-10-14T07:15:49.498Z,1011.62
2022-10-14T07:16:49.489Z,1011.57
2022-10-14T07:17:49.477Z,1011.57
2022-10-14T07:18:49.482Z,1011.57
2022-10-14T07:19:49.457Z,1011.60
2022-10-14T07:20:49.441Z,1011.58
2022-10-14T07:21:49.431Z,1011.58
2022-10-14T07:22:49.448Z,1011.60
2022-10-14T07:23:49.417Z,1011.60
2022-10-14T07:24:49.399Z,1011.62
2022-10-14T07:25:49.413Z,1011.63
2022-10-14T07:26:49.511Z,1011.60
2022-10-14T07:27:49.385Z,1011.59
2022-10-14T07:28:49.351Z,1011.62
2022-10-14T07:29:49.350Z,1011.61
2022-10-14T07:30:49.355Z,1011.63
2022-10-14T07:31:49.330Z,1011.63
2022-10-14T07:32:49.315Z,1011.58
2022-10-14T07:33:49.330Z,1011.64
2022-10-14T07:34:49.289Z,1011.61
2022-10-14T07:35:49.280Z,1011.58
2022-10-14T07:36:49.273Z,1011.56
2022-10-14T07:37:49.258Z,1011.62
2022-10-14T07:38:49.268Z,1011.62
2022-10-14T07:39:49.244Z,1011.64
2022-10-14T07:40:49.226Z,1011.65
2022-10-14T07:41:49.217Z,1011.63
2022-10-14T07:42:49.207Z,1011.63
2022-10-14T07:43:49.233Z,1011.64
2022-10-14T07:44:49.186Z,1011.68
2022-10-14T07:45:49.170Z,1011.70
2022-10-14T07:46:49.155Z,1011.67
2022-10-14T07:47:49.152Z,1011.70
2022-10-14T07:48:57.471Z,1011.70
2022-10-14T07:49:50.127Z,1011.65
2022-10-14T07:50:49.111Z,1011.64
2022-10-14T07:51:49.105Z,1011.65
2022-10-14T07:52:49.088Z,1011.71
2022-10-14T07:53:49.108Z,1011.67
2022-10-14T07:54:49.072Z,1011.67
2022-10-14T07:55:49.066Z,1011.69
2022-10-14T07:56:49.049Z,1011.71
2022-10-14T07:57:49.037Z,1011.70
2022-10-14T07:58:49.038Z,1011.67
2022-10-14T07:59:49.036Z,1011.68
2022-10-14T08:00:49.005Z,1011.71
2022-10-14T08:01:49.119Z,1011.69
2022-10-14T08:02:48.985Z,1011.69
2022-10-14T08:03:48.996Z,1011.66
2022-10-14T08:04:48.962Z,1011.64
2022-10-14T08:05:48.949Z,1011.67
2022-10-14T08:06:48.963Z,1011.63
2022-10-14T08:07:48.929Z,1011.64
2022-10-14T08:08:48.939Z,1011.61
2022-10-14T08:09:48.910Z,1011.60
2022-10-14T08:10:48.894Z,1011.62
2022-10-14T08:11:48.880Z,1011.64
2022-10-14T08:12:48.879Z,1011.62
2022-10-14T08:13:48.895Z,1011.64
2022-10-14T08:14:48.854Z,1011.65
2022-10-14T08:15:48.865Z,1011.72
2022-10-14T08:16:48.836Z,1011.68
2022-10-14T08:17:48.821Z,1011.62
2022-10-14T08:18:48.830Z,1011.64
2022-10-14T08:19:48.804Z,1011.60
2022-10-14T08:20:48.787Z,1011.63
2022-10-14T08:21:48.778Z,1011.63
2022-10-14T08:22:48.779Z,1011.54
2022-10-14T08:23:48.779Z,1011.56
2022-10-14T08:24:48.752Z,1011.58
2022-10-14T08:25:48.738Z,1011.57
2022-10-14T08:26:48.723Z,1011.60
2022-10-14T08:27:48.710Z,1011.56
2022-10-14T08:28:48.811Z,1011.60
2022-10-14T08:29:48.707Z,1011.55
2022-10-14T08:30:48.687Z,1011.59
2022-10-14T08:31:48.689Z,1011.58
2022-10-14T08:32:48.659Z,1011.56
2022-10-14T08:33:48.679Z,1011.53
2022-10-14T08:34:48.641Z,1011.53
2022-10-14T08:35:53.121Z,1011.51
2022-10-14T08:36:49.613Z,1011.51
2022-10-14T08:37:48.605Z,1011.56
2022-10-14T08:38:48.593Z,1011.48
2022-10-14T08:39:48.611Z,1011.50
2022-10-14T08:40:53.335Z,1011.49
2022-10-14T08:41:49.583Z,1011.43
2022-10-14T08:42:48.553Z,1011.49
2022-10-14T08:43:48.545Z,1011.37
2022-10-14T08:44:48.532Z,1011.39
2022-10-14T08:45:48.511Z,1011.44
2022-10-14T08:46:51.938Z,1011.42
2022-10-14T08:47:48.518Z,1011.41
2022-10-14T08:48:48.483Z,1011.43
2022-10-14T08:49:48.475Z,1011.43
2022-10-14T08:50:48.472Z,1011.40
2022-10-14T08:51:48.452Z,1011.36
2022-10-14T08:52:48.476Z,1011.32
2022-10-14T08:53:48.435Z,1011.31
2022-10-14T08:54:48.432Z,1011.35
2022-10-14T08:55:48.412Z,1011.37
2022-10-14T08:56:48.398Z,1011.35
2022-10-14T08:57:48.422Z,1011.35
2022-10-14T08:58:48.378Z,1011.39
2022-10-14T08:59:48.366Z,1011.35
2022-10-14T09:00:48.359Z,1011.38
2022-10-14T09:01:48.347Z,1011.36
2022-10-14T09:02:48.357Z,1011.31
2022-10-14T09:03:48.404Z,1011.34
2022-10-14T09:04:48.315Z,1011.31
2022-10-14T09:05:48.300Z,1011.38
2022-10-14T09:06:48.290Z,1011.35
2022-10-14T09:07:48.343Z,1011.35
2022-10-14T09:08:48.271Z,1011.34
2022-10-14T09:09:48.260Z,1011.34
2022-10-14T09:10:48.248Z,1011.37
2022-10-14T09:11:48.244Z,1011.34
2022-10-14T09:12:48.241Z,1011.37
2022-10-14T09:13:48.237Z,1011.39
2022-10-14T09:14:48.212Z,1011.39
2022-10-14T09:15:48.192Z,1011.30
2022-10-14T09:16:51.779Z,1011.32
2022-10-14T09:17:49.181Z,1011.34
2022-10-14T09:18:50.922Z,1011.27
2022-10-14T09:19:49.169Z,1011.33
2022-10-14T09:20:48.140Z,1011.35
2022-10-14T09:21:52.753Z,1011.36
2022-10-14T09:22:49.146Z,1011.37
2022-10-14T09:23:48.133Z,1011.28
2022-10-14T09:24:48.093Z,1011.33
2022-10-14T09:25:48.082Z,1011.31
2022-10-14T09:26:48.152Z,1011.34
2022-10-14T09:27:48.054Z,1011.27
2022-10-14T09:28:48.181Z,1011.26
2022-10-14T09:29:48.034Z,1011.25
2022-10-14T09:30:48.028Z,1011.24
2022-10-14T09:31:48.042Z,1011.30
2022-10-14T09:32:48.010Z,1011.31
2022-10-14T09:33:47.998Z,1011.25
2022-10-14T09:34:48.006Z,1011.26
2022-10-14T09:35:48.045Z,1011.24
2022-10-14T09:36:48.030Z,1011.29
2022-10-14T09:37:47.950Z,1011.23
2022-10-14T09:38:47.980Z,1011.25
2022-10-14T09:39:47.931Z,1011.22
2022-10-14T09:40:47.925Z,1011.23
2022-10-14T09:41:47.918Z,1011.20
2022-10-14T09:42:47.897Z,1011.22
2022-10-14T09:43:47.914Z,1011.22
2022-10-14T09:44:47.878Z,1011.17
2022-10-14T09:45:47.879Z,1011.22
2022-10-14T09:46:47.849Z,1011.22
2022-10-14T09:47:47.847Z,1011.16
2022-10-14T09:48:47.853Z,1011.14
2022-10-14T09:49:47.823Z,1011.14
2022-10-14T09:50:47.809Z,1011.14
2022-10-14T09:51:47.817Z,1011.20
2022-10-14T09:52:47.786Z,1011.15
2022-10-14T09:53:47.846Z,1011.15
2022-10-14T09:54:47.785Z,1011.14
2022-10-14T09:55:47.761Z,1011.13
2022-10-14T09:56:47.754Z,1011.08
2022-10-14T09:57:47.737Z,1011.09
2022-10-14T09:58:47.727Z,1011.12
2022-10-14T09:59:47.731Z,1011.07
2022-10-14T10:00:47.712Z,1011.06
2022-10-14T10:01:47.696Z,1011.11
2022-10-14T10:02:47.701Z,1011.11
2022-10-14T10:03:47.856Z,1011.11
2022-10-14T10:04:47.962Z,1011.07
2022-10-14T10:05:47.648Z,1011.06
2022-10-14T10:06:47.641Z,1011.09
2022-10-14T10:07:47.656Z,1011.01
2022-10-14T10:08:47.617Z,1010.99
2022-10-14T10:09:47.621Z,1010.99
2022-10-14T10:10:47.589Z,1010.98
2022-10-14T10:11:47.583Z,1010.95
2022-10-14T10:12:47.591Z,1011.01
2022-10-14T10:13:47.560Z,1010.99
2022-10-14T10:14:47.577Z,1010.96
2022-10-14T10:15:47.536Z,1010.97
2022-10-14T10:16:47.585Z,1010.87
2022-10-14T10:17:47.538Z,1010.92
2022-10-14T10:18:47.513Z,1010.95
2022-10-14T10:19:47.491Z,1010.91
2022-10-14T10:20:47.517Z,1010.94
2022-10-14T10:21:47.472Z,1010.91
2022-10-14T10:22:47.460Z,1010.91
2022-10-14T10:23:47.466Z,1010.91
2022-10-14T10:24:47.439Z,1010.89
2022-10-14T10:25:47.447Z,1010.87
2022-10-14T10:26:47.422Z,1010.83
2022-10-14T10:27:47.424Z,1010.85
2022-10-14T10:28:47.496Z,1010.80
2022-10-14T10:29:47.384Z,1010.79
2022-10-14T10:30:47.394Z,1010.84
2022-10-14T10:31:47.364Z,1010.88
2022-10-14T10:32:47.375Z,1010.88
2022-10-14T10:33:47.340Z,1010.84
2022-10-14T10:34:47.335Z,1010.88
2022-10-14T10:35:47.319Z,1010.83
2022-10-14T10:36:47.334Z,1010.83
2022-10-14T10:37:47.299Z,1010.85
2022-10-14T10:38:47.288Z,1010.82
2022-10-14T10:39:47.298Z,1010.86
2022-10-14T10:40:47.304Z,1010.84
2022-10-14T10:41:47.254Z,1010.82
2022-10-14T10:42:47.260Z,1010.86
2022-10-14T10:43:47.239Z,1010.86
2022-10-14T10:44:47.219Z,1010.88
2022-10-14T10:45:47.254Z,1010.89
2022-10-14T10:46:47.216Z,1010.88
2022-10-14T10:47:47.214Z,1010.88
2022-10-14T10:48:47.174Z,1010.87
2022-10-14T10:49:47.255Z,1010.84
2022-10-14T10:50:47.152Z,1010.88
2022-10-14T10:51:47.149Z,1010.81
2022-10-14T10:52:47.153Z,1010.81
2022-10-14T10:53:47.123Z,1010.90
2022-10-14T10:54:47.134Z,1010.86
2022-10-14T10:56:47.091Z,1010.82
2022-10-14T10:57:47.076Z,1010.80
2022-10-14T10:58:47.093Z,1010.81
2022-10-14T10:59:47.059Z,1010.76
2022-10-14T11:00:47.050Z,1010.80
2022-10-14T11:01:47.124Z,1010.81
2022-10-14T11:02:47.026Z,1010.81
2022-10-14T11:03:47.016Z,1010.79
2022-10-14T11:04:47.001Z,1010.75
2022-10-14T11:05:47.017Z,1010.79
2022-10-14T11:06:47.004Z,1010.74
2022-10-14T11:07:46.973Z,1010.77
2022-10-14T11:08:46.983Z,1010.76
2022-10-14T11:09:46.952Z,1010.77
2022-10-14T11:10:46.969Z,1010.73
2022-10-14T11:11:46.946Z,1010.79
2022-10-14T11:12:46.918Z,1010.71
2022-10-14T11:13:46.912Z,1010.75
2022-10-14T11:14:46.904Z,1010.74
2022-10-14T11:15:46.914Z,1010.74
2022-10-14T11:16:46.911Z,1010.73
2022-10-14T11:17:46.864Z,1010.72
2022-10-14T11:18:46.855Z,1010.72
2022-10-14T11:19:46.852Z,1010.69
2022-10-14T11:20:46.826Z,1010.62
2022-10-14T11:21:46.820Z,1010.68
2022-10-14T11:22:46.830Z,1010.66
2022-10-14T11:23:46.816Z,1010.69
2022-10-14T11:24:46.795Z,1010.63
2022-10-14T11:25:46.786Z,1010.70
2022-10-14T11:26:46.766Z,1010.65
2022-10-14T11:27:46.793Z,1010.60
2022-10-14T11:28:46.864Z,1010.64
2022-10-14T11:29:46.733Z,1010.65
2022-10-14T11:30:46.738Z,1010.63
2022-10-14T11:31:46.739Z,1010.57
2022-10-14T11:32:46.705Z,1010.63
2022-10-14T11:33:46.689Z,1010.60
2022-10-14T11:34:46.705Z,1010.63
2022-10-14T11:35:46.667Z,1010.63
2022-10-14T11:36:46.675Z,1010.58
2022-10-14T11:37:46.648Z,1010.59
2022-10-14T11:38:46.637Z,1010.60
2022-10-14T11:39:46.641Z,1010.60
2022-10-14T11:40:46.619Z,1010.58
2022-10-14T11:41:46.620Z,1010.58
2022-10-14T11:42:46.600Z,1010.54
2022-10-14T11:43:46.595Z,1010.48
2022-10-14T11:44:46.595Z,1010.48
2022-10-14T11:45:46.557Z,1010.42
2022-10-14T11:46:46.553Z,1010.41
2022-10-14T11:47:46.556Z,1010.40
2022-10-14T11:48:46.588Z,1010.42
2022-10-14T11:49:46.548Z,1010.37
2022-10-14T11:50:46.505Z,1010.31
2022-10-14T11:51:46.491Z,1010.33
2022-10-14T11:52:46.505Z,1010.29
2022-10-14T11:53:46.475Z,1010.28
2022-10-14T11:54:46.460Z,1010.32
2022-10-14T11:55:46.448Z,1010.36
2022-10-14T11:56:46.435Z,1010.37
2022-10-14T11:57:46.454Z,1010.40
2022-10-14T11:58:46.413Z,1010.36
2022-10-14T11:59:46.485Z,1010.34
2022-10-14T12:00:46.418Z,1010.33
2022-10-14T12:01:46.390Z,1010.34
2022-10-14T12:02:46.493Z,1010.28
2022-10-14T12:03:46.363Z,1010.31
2022-10-14T12:04:46.352Z,1010.32
2022-10-14T12:05:46.380Z,1010.32
2022-10-14T12:06:46.332Z,1010.28